createdAt,value
2019-04-23T00:00:03.466Z,7.07
2019-04-23T00:02:33.211Z,7.01
2019-04-23T00:05:08.264Z,7.00
2019-04-23T00:07:48.421Z,6.94
2019-04-23T00:10:25.986Z,6.89
2019-04-23T00:12:53.078Z,6.82
2019-04-23T00:15:45.419Z,6.80
2019-04-23T00:18:12.266Z,6.80
2019-04-23T00:20:42.379Z,6.77
2019-04-23T00:23:19.107Z,6.71
2019-04-23T00:28:36.195Z,6.70
2019-04-23T00:31:13.343Z,6.71
2019-04-23T00:33:44.446Z,6.71
2019-04-23T00:36:22.946Z,6.75
2019-04-23T00:38:50.048Z,6.81
2019-04-23T00:41:25.068Z,6.85
2019-04-23T00:44:01.867Z,6.90
2019-04-23T00:46:36.807Z,6.91
2019-04-23T00:49:12.102Z,6.95
2019-04-23T00:51:45.989Z,6.99
2019-04-23T00:54:17.763Z,7.02
2019-04-23T00:56:54.508Z,7.05
2019-04-23T00:59:33.143Z,7.01
2019-04-23T01:02:01.196Z,7.09
2019-04-23T01:04:39.698Z,7.14
2019-04-23T01:07:12.849Z,7.13
2019-04-23T01:09:53.447Z,7.16
2019-04-23T01:12:35.940Z,7.18
2019-04-23T01:14:55.632Z,7.25
2019-04-23T01:18:18.668Z,7.26
2019-04-23T01:20:08.118Z,7.27
2019-04-23T01:22:29.370Z,7.26
2019-04-23T01:25:24.665Z,7.29
2019-04-23T01:28:23.471Z,7.27
2019-04-23T01:33:34.099Z,7.27
2019-04-23T01:36:20.583Z,7.30
2019-04-23T01:38:41.814Z,7.23
2019-04-23T01:41:13.337Z,7.18
2019-04-23T01:43:47.728Z,7.11
2019-04-23T01:46:25.068Z,7.11
2019-04-23T01:48:58.652Z,7.06
2019-04-23T01:51:38.155Z,6.95
2019-04-23T01:54:06.537Z,6.91
2019-04-23T01:56:33.877Z,6.86
2019-04-23T02:04:22.903Z,6.78
2019-04-23T02:07:04.486Z,6.75
2019-04-23T02:09:37.223Z,6.68
2019-04-23T02:12:11.141Z,6.60
2019-04-23T02:14:43.339Z,6.55
2019-04-23T02:17:15.804Z,6.53
2019-04-23T02:19:51.351Z,6.53
2019-04-23T02:22:58.687Z,6.50
2019-04-23T02:25:39.648Z,6.49
2019-04-23T02:28:07.565Z,6.43
2019-04-23T02:31:12.596Z,6.40
2019-04-23T02:33:30.107Z,6.43
2019-04-23T02:38:31.844Z,6.37
2019-04-23T02:43:29.901Z,6.33
2019-04-23T02:48:52.464Z,6.34
2019-04-23T02:51:30.840Z,6.42
2019-04-23T03:02:47.868Z,6.28
2019-04-23T03:04:16.817Z,6.30
2019-04-23T03:06:50.049Z,6.37
2019-04-23T03:09:23.308Z,6.31
2019-04-23T03:12:08.242Z,6.23
2019-04-23T03:14:32.800Z,6.22
2019-04-23T03:17:10.746Z,6.31
2019-04-23T03:20:09.681Z,6.24
2019-04-23T03:25:40.133Z,6.28
2019-04-23T03:28:21.239Z,6.36
2019-04-23T03:32:31.824Z,6.41
2019-04-23T03:41:17.176Z,6.70
2019-04-23T03:54:21.796Z,7.16
2019-04-23T03:59:19.895Z,7.42
2019-04-23T04:02:03.434Z,7.49
2019-04-23T04:04:31.761Z,7.61
2019-04-23T04:07:01.226Z,7.68
2019-04-23T04:09:34.020Z,7.75
2019-04-23T04:12:07.719Z,7.86
2019-04-23T04:19:47.902Z,8.01
2019-04-23T04:22:32.901Z,7.96
2019-04-23T04:25:01.626Z,8.02
2019-04-23T04:27:38.415Z,8.01
2019-04-23T04:30:10.759Z,7.97
2019-04-23T04:35:22.379Z,8.03
2019-04-23T04:40:36.435Z,8.01
2019-04-23T04:45:42.476Z,8.00
2019-04-23T04:47:58.596Z,8.12
2019-04-23T04:50:46.933Z,8.16
2019-04-23T04:53:23.272Z,8.15
2019-04-23T05:03:29.689Z,8.23
2019-04-23T05:06:16.175Z,8.36
2019-04-23T05:08:48.149Z,8.39
2019-04-23T05:11:30.007Z,8.46
2019-04-23T05:16:29.267Z,8.45
2019-04-23T05:21:46.879Z,8.59
2019-04-23T05:24:16.344Z,8.72
2019-04-23T05:26:41.258Z,8.77
2019-04-23T05:29:20.058Z,8.76
2019-04-23T05:31:58.192Z,8.73
2019-04-23T05:34:35.721Z,8.89
2019-04-23T05:37:04.197Z,8.87
2019-04-23T05:39:52.144Z,8.80
2019-04-23T05:44:54.295Z,8.87
2019-04-23T05:47:27.836Z,8.90
2019-04-23T05:49:58.965Z,8.94
2019-04-23T05:52:41.334Z,8.97
2019-04-23T05:55:12.064Z,9.06
2019-04-23T05:57:38.624Z,9.13
2019-04-23T06:00:17.545Z,9.10
2019-04-23T06:02:57.289Z,9.13
2019-04-23T06:05:25.022Z,9.16
2019-04-23T06:08:05.620Z,9.24
2019-04-23T06:10:34.313Z,9.27
2019-04-23T06:13:12.328Z,9.23
2019-04-23T06:15:43.805Z,9.38
2019-04-23T06:18:24.517Z,9.54
2019-04-23T06:20:55.578Z,9.59
2019-04-23T06:28:35.154Z,9.73
2019-04-23T06:31:20.533Z,9.77
2019-04-23T06:33:48.465Z,9.71
2019-04-23T06:36:39.935Z,9.74
2019-04-23T06:41:30.870Z,9.86
2019-04-23T06:46:56.772Z,10.24
2019-04-23T06:49:37.297Z,10.37
2019-04-23T06:52:15.196Z,10.27
2019-04-23T06:54:42.553Z,10.42
2019-04-23T07:00:00.593Z,10.72
2019-04-23T07:02:27.279Z,10.81
2019-04-23T07:10:11.423Z,10.87
2019-04-23T07:12:47.201Z,11.05
2019-04-23T07:15:32.132Z,11.05
2019-04-23T07:17:47.787Z,11.21
2019-04-23T07:20:28.608Z,11.21
2019-04-23T07:23:10.622Z,11.40
2019-04-23T07:25:34.650Z,11.61
2019-04-23T07:28:14.938Z,11.78
2019-04-23T07:30:39.884Z,11.67
2019-04-23T07:33:18.670Z,12.17
2019-04-23T07:35:52.036Z,12.17
2019-04-23T07:39:09.811Z,12.51
2019-04-23T07:44:35.500Z,12.65
2019-04-23T07:50:09.810Z,12.63
2019-04-23T07:55:21.691Z,12.46
2019-04-23T07:57:43.290Z,12.50
2019-04-23T08:00:18.167Z,12.54
2019-04-23T08:02:57.859Z,12.61
2019-04-23T08:05:26.412Z,12.74
2019-04-23T08:08:00.243Z,12.71
2019-04-23T08:10:35.733Z,12.71
2019-04-23T08:15:51.954Z,12.98
2019-04-23T08:18:23.275Z,13.05
2019-04-23T08:20:54.048Z,12.88
2019-04-23T08:24:01.646Z,12.90
2019-04-23T08:27:08.281Z,12.85
2019-04-23T08:29:30.574Z,12.88
2019-04-23T08:32:15.001Z,12.81
2019-04-23T08:39:57.100Z,13.04
2019-04-23T08:42:46.887Z,13.06
2019-04-23T08:45:28.530Z,13.27
2019-04-23T08:48:17.317Z,13.21
2019-04-23T08:50:50.684Z,13.04
2019-04-23T08:53:35.737Z,12.85
2019-04-23T08:56:15.102Z,13.14
2019-04-23T09:01:08.939Z,13.61
2019-04-23T09:03:39.150Z,13.65
2019-04-23T09:06:18.799Z,14.02
2019-04-23T09:08:49.523Z,14.27
2019-04-23T09:11:41.822Z,14.35
2019-04-23T09:16:46.883Z,14.39
2019-04-23T09:19:16.025Z,14.67
2019-04-23T09:21:53.626Z,14.60
2019-04-23T09:24:23.016Z,14.66
2019-04-23T09:27:03.922Z,14.72
2019-04-23T09:29:41.155Z,14.72
2019-04-23T09:32:23.916Z,14.64
2019-04-23T09:34:58.679Z,14.68
2019-04-23T09:37:47.196Z,14.66
2019-04-23T09:41:11.566Z,14.60
2019-04-23T09:43:40.298Z,14.57
2019-04-23T09:46:27.329Z,14.88
2019-04-23T09:54:09.754Z,14.84
2019-04-23T09:56:42.800Z,14.36
2019-04-23T10:01:40.928Z,14.57
2019-04-23T10:04:08.727Z,14.49
2019-04-23T10:06:33.373Z,14.48
2019-04-23T10:09:10.015Z,14.67
2019-04-23T10:11:41.069Z,14.71
2019-04-23T10:14:14.674Z,15.07
2019-04-23T10:16:47.524Z,15.33
2019-04-23T10:19:22.255Z,15.26
2019-04-23T10:21:55.667Z,15.77
2019-04-23T10:24:28.798Z,15.96
2019-04-23T10:27:02.068Z,16.42
2019-04-23T10:29:38.440Z,16.39
2019-04-23T10:32:11.770Z,16.70
2019-04-23T10:34:54.232Z,16.55
2019-04-23T10:37:30.453Z,16.26
2019-04-23T10:39:56.680Z,16.31
2019-04-23T10:42:28.981Z,16.35
2019-04-23T10:45:30.299Z,16.42
2019-04-23T10:48:49.667Z,16.21
2019-04-23T10:51:31.517Z,15.85
2019-04-23T10:54:16.080Z,15.71
2019-04-23T10:57:02.118Z,15.44
2019-04-23T10:59:35.057Z,15.53
2019-04-23T11:02:29.042Z,15.36
2019-04-23T11:07:28.633Z,14.97
2019-04-23T11:10:17.406Z,14.82
2019-04-23T11:13:10.638Z,14.99
2019-04-23T11:15:55.784Z,15.05
2019-04-23T11:18:08.820Z,14.89
2019-04-23T11:21:09.325Z,15.15
2019-04-23T11:23:29.097Z,15.46
2019-04-23T11:26:06.684Z,15.31
2019-04-23T11:28:37.760Z,15.49
2019-04-23T11:31:31.250Z,15.69
2019-04-23T11:34:01.093Z,15.67
2019-04-23T11:36:49.941Z,16.02
2019-04-23T11:39:05.370Z,16.32
2019-04-23T11:41:53.057Z,15.92
2019-04-23T11:44:23.685Z,15.96
2019-04-23T11:52:23.476Z,15.93
2019-04-23T11:54:38.954Z,15.81
2019-04-23T12:02:40.215Z,16.07
2019-04-23T12:05:37.900Z,15.99
2019-04-23T12:08:36.728Z,15.53
2019-04-23T12:14:24.273Z,15.60
2019-04-23T12:20:02.974Z,15.16
2019-04-23T12:22:22.229Z,15.34
2019-04-23T12:25:06.546Z,15.33
2019-04-23T12:27:31.144Z,15.59
2019-04-23T12:30:10.282Z,15.61
2019-04-23T12:32:47.967Z,15.58
2019-04-23T12:35:21.451Z,15.52
2019-04-23T12:40:49.254Z,15.14
2019-04-23T12:45:43.165Z,15.01
2019-04-23T12:48:36.794Z,14.96
2019-04-23T12:53:38.342Z,14.89
2019-04-23T12:56:02.481Z,15.00
2019-04-23T12:58:32.228Z,15.16
2019-04-23T13:01:25.688Z,14.91
2019-04-23T13:03:45.999Z,14.79
2019-04-23T13:06:20.734Z,14.44
2019-04-23T13:09:19.548Z,14.56
2019-04-23T13:11:40.778Z,14.60
2019-04-23T13:14:17.382Z,14.16
2019-04-23T13:16:58.986Z,14.08
2019-04-23T13:19:33.051Z,14.08
2019-04-23T13:24:50.111Z,13.93
2019-04-23T13:27:32.195Z,13.99
2019-04-23T13:30:02.061Z,13.89
2019-04-23T13:32:36.042Z,13.88
2019-04-23T13:35:19.892Z,13.64
2019-04-23T13:37:42.868Z,13.85
2019-04-23T13:40:17.600Z,13.82
2019-04-23T13:45:49.748Z,13.57
2019-04-23T13:48:00.665Z,13.55
2019-04-23T13:55:37.907Z,13.19
2019-04-23T13:58:15.210Z,13.22
2019-04-23T14:00:55.752Z,13.06
2019-04-23T14:03:30.710Z,13.10
2019-04-23T14:08:55.255Z,13.26
2019-04-23T14:11:23.255Z,13.00
2019-04-23T14:13:55.067Z,13.25
2019-04-23T14:19:02.486Z,13.32
2019-04-23T14:26:41.660Z,13.15
2019-04-23T14:29:23.201Z,13.04
2019-04-23T14:31:57.501Z,13.02
2019-04-23T14:34:27.219Z,13.12
2019-04-23T14:39:41.027Z,13.05
2019-04-23T14:42:35.190Z,13.11
2019-04-23T14:45:23.203Z,13.07
2019-04-23T14:47:55.078Z,12.73
2019-04-23T14:50:34.547Z,12.49
2019-04-23T14:53:06.883Z,12.45
2019-04-23T14:58:12.578Z,12.24
2019-04-23T15:00:43.612Z,12.25
2019-04-23T15:03:25.237Z,12.45
2019-04-23T15:05:56.374Z,12.49
2019-04-23T15:11:17.133Z,12.41
2019-04-23T15:29:02.918Z,11.78
2019-04-23T15:31:57.217Z,11.68
2019-04-23T15:34:25.795Z,11.52
2019-04-23T15:38:14.603Z,11.53
2019-04-23T15:44:52.876Z,11.50
2019-04-23T15:47:26.485Z,11.29
2019-04-23T15:50:03.201Z,11.01
2019-04-23T15:52:37.523Z,11.05
2019-04-23T15:55:01.619Z,11.06
2019-04-23T16:00:13.051Z,10.79
2019-04-23T16:02:20.053Z,10.79
2019-04-23T16:04:53.400Z,10.46
2019-04-23T16:07:41.368Z,10.46
2019-04-23T16:13:02.342Z,10.52
2019-04-23T16:15:35.495Z,10.46
2019-04-23T16:18:28.190Z,10.42
2019-04-23T16:21:03.726Z,10.18
2019-04-23T16:23:26.440Z,10.16
2019-04-23T16:26:09.471Z,10.18
2019-04-23T16:29:00.295Z,10.23
2019-04-23T16:31:26.470Z,10.38
2019-04-23T16:34:08.638Z,10.43
2019-04-23T16:36:32.490Z,10.36
2019-04-23T16:39:06.192Z,10.42
2019-04-23T16:41:46.667Z,10.35
2019-04-23T16:47:32.867Z,10.21
2019-04-23T16:49:46.091Z,10.33
2019-04-23T16:52:17.714Z,10.30
2019-04-23T16:54:58.332Z,10.21
2019-04-23T17:00:06.695Z,10.35
2019-04-23T17:02:26.120Z,10.26
2019-04-23T17:05:02.731Z,10.07
2019-04-23T17:07:25.603Z,10.07
2019-04-23T17:12:33.843Z,10.10
2019-04-23T17:15:21.810Z,10.08
2019-04-23T17:17:49.486Z,10.03
2019-04-23T17:20:28.925Z,10.06
2019-04-23T17:22:56.611Z,10.04
2019-04-23T17:25:25.889Z,9.97
2019-04-23T17:28:12.712Z,10.05
2019-04-23T17:33:33.201Z,10.14
2019-04-23T17:36:21.080Z,10.05
2019-04-23T17:38:55.284Z,9.73
2019-04-23T17:41:31.632Z,9.80
2019-04-23T17:44:12.572Z,9.94
2019-04-23T17:46:38.592Z,10.01
2019-04-23T17:49:10.794Z,9.82
2019-04-23T17:51:44.382Z,9.78
2019-04-23T17:57:13.118Z,9.72
2019-04-23T17:59:27.895Z,9.77
2019-04-23T18:02:27.327Z,9.85
2019-04-23T18:04:38.741Z,9.90
2019-04-23T18:07:05.385Z,9.67
2019-04-23T18:09:51.663Z,9.52
2019-04-23T18:12:28.941Z,9.59
2019-04-23T18:14:48.330Z,9.54
2019-04-23T18:17:35.580Z,9.46
2019-04-23T18:20:13.412Z,9.41
2019-04-23T18:22:48.808Z,9.36
2019-04-23T18:25:16.582Z,9.38
2019-04-23T18:27:51.260Z,9.42
2019-04-23T18:30:49.460Z,9.47
2019-04-23T18:35:58.085Z,9.50
2019-04-23T18:38:43.763Z,9.53
2019-04-23T18:43:48.318Z,9.63
2019-04-23T18:46:25.439Z,9.57
2019-04-23T18:48:49.759Z,9.46
2019-04-23T18:51:27.092Z,9.43
2019-04-23T18:53:52.656Z,9.20
2019-04-23T18:59:11.019Z,9.12
2019-04-23T19:02:30.986Z,9.07
2019-04-23T19:05:07.268Z,8.97
2019-04-23T19:08:01.433Z,9.09
2019-04-23T19:11:04.969Z,9.16
2019-04-23T19:13:39.839Z,9.11
2019-04-23T19:16:08.087Z,9.06
2019-04-23T19:18:52.641Z,9.04
2019-04-23T19:21:36.291Z,9.04
2019-04-23T19:23:51.006Z,9.10
2019-04-23T19:26:45.840Z,9.21
2019-04-23T19:29:00.436Z,9.25
2019-04-23T19:39:46.996Z,9.12
2019-04-23T19:44:41.272Z,8.98
2019-04-23T19:47:16.961Z,9.09
2019-04-23T19:49:44.802Z,9.12
2019-04-23T19:52:13.835Z,9.29
2019-04-23T19:57:42.282Z,9.28
2019-04-23T19:59:58.274Z,9.18
2019-04-23T20:02:55.451Z,9.27
2019-04-23T20:04:59.524Z,9.29
2019-04-23T20:07:56.595Z,9.39
2019-04-23T20:10:13.860Z,9.32
2019-04-23T20:12:44.814Z,9.36
2019-04-23T20:15:30.486Z,9.39
2019-04-23T20:17:54.131Z,9.34
2019-04-23T20:20:35.288Z,9.33
2019-04-23T20:23:11.865Z,9.26
2019-04-23T20:28:55.078Z,9.15
2019-04-23T20:32:05.522Z,9.15
2019-04-23T20:34:18.913Z,9.16
2019-04-23T20:36:38.507Z,9.10
2019-04-23T20:39:09.290Z,9.22
2019-04-23T20:47:10.251Z,9.20
2019-04-23T20:49:48.033Z,9.28
2019-04-23T20:57:48.455Z,9.42
2019-04-23T21:00:12.308Z,9.46
2019-04-23T21:03:25.399Z,9.48
2019-04-23T21:05:41.221Z,9.49
2019-04-23T21:08:30.367Z,9.41
2019-04-23T21:10:51.049Z,9.43
2019-04-23T21:13:43.347Z,9.40
2019-04-23T21:15:57.904Z,9.30
2019-04-23T21:21:06.677Z,9.24
2019-04-23T21:23:38.380Z,9.32
2019-04-23T21:26:05.608Z,9.24
2019-04-23T21:28:50.703Z,9.20
2019-04-23T21:31:26.661Z,9.25
2019-04-23T21:34:04.202Z,9.27
2019-04-23T21:36:40.343Z,9.28
2019-04-23T21:39:34.586Z,9.34
2019-04-23T21:42:14.501Z,9.39
2019-04-23T21:44:40.432Z,9.39
2019-04-23T21:47:09.115Z,9.41
2019-04-23T21:50:04.697Z,9.36
2019-04-23T21:52:18.355Z,9.45
2019-04-23T21:57:35.393Z,9.41
2019-04-23T21:59:59.345Z,9.41
2019-04-23T22:02:49.223Z,9.42
2019-04-23T22:05:17.471Z,9.44
2019-04-23T22:07:51.571Z,9.28
2019-04-23T22:10:20.492Z,9.29
2019-04-23T22:13:02.621Z,9.33
2019-04-23T22:15:39.368Z,9.36
2019-04-23T22:17:59.859Z,9.26
2019-04-23T22:20:44.086Z,9.11
2019-04-23T22:25:48.663Z,8.94
2019-04-23T22:28:18.063Z,8.88
2019-04-23T22:31:01.337Z,8.93
2019-04-23T22:33:25.248Z,8.90
2019-04-23T22:38:29.433Z,8.93
2019-04-23T22:41:04.797Z,8.90
2019-04-23T22:43:43.036Z,8.89
2019-04-23T22:46:20.697Z,8.79
2019-04-23T22:49:07.152Z,8.86
2019-04-23T22:54:05.438Z,8.92
2019-04-23T22:56:43.968Z,8.98
2019-04-23T23:04:31.391Z,8.92
2019-04-23T23:07:23.568Z,8.88
2019-04-23T23:09:44.010Z,8.88
2019-04-23T23:12:16.731Z,9.02
2019-04-23T23:14:54.788Z,9.03
2019-04-23T23:17:24.297Z,9.06
2019-04-23T23:20:16.067Z,9.06
2019-04-23T23:22:51.757Z,9.04
2019-04-23T23:25:19.093Z,9.01
2019-04-23T23:27:50.104Z,9.05
2019-04-23T23:30:19.609Z,9.06
2019-04-23T23:33:11.527Z,9.04
2019-04-23T23:35:54.033Z,9.01
2019-04-23T23:41:12.925Z,9.11
2019-04-23T23:44:06.060Z,9.01
2019-04-23T23:48:40.690Z,9.05
2019-04-23T23:53:58.584Z,9.13
2019-04-23T23:56:19.345Z,9.05
2019-04-23T23:59:03.852Z,9.04
